Time;durP1;ratioP1;P1;durP2;ratioP2;P2;SDS_P1;SDS_P2;PMS_P1;PMS_P2;Temp;Humidity;BMP_temperature;BMP_pressure;BME280_temperature;BME280_humidity;BME280_pressure;Samples;Min_cycle;Max_cycle;Signal;HPM_P1;HPM_P2
2023/09/16 00:01:03;;;;;;;0.00;0.00;;;19.70;99.90;;;;;;5009622;28;20034;-85
2023/09/16 00:03:31;;;;;;;0.03;0.03;;;19.70;99.90;;;;;;5010518;28;20030;-85
2023/09/16 00:05:57;;;;;;;1.35;1.33;;;19.70;99.90;;;;;;5010726;28;20026;-83
2023/09/16 00:08:23;;;;;;;0.00;0.00;;;19.80;99.90;;;;;;5010635;28;20378;-85
2023/09/16 00:10:50;;;;;;;0.00;0.00;;;19.60;99.90;;;;;;5010817;28;20030;-85
2023/09/16 00:13:16;;;;;;;0.00;0.00;;;19.80;99.90;;;;;;4992961;28;20452;-84
2023/09/16 00:15:45;;;;;;;0.00;0.00;;;19.80;99.90;;;;;;5010415;28;20026;-85
2023/09/16 00:18:11;;;;;;;0.00;0.00;;;19.60;99.90;;;;;;5010418;28;20077;-85
2023/09/16 00:20:37;;;;;;;0.00;0.00;;;19.60;99.90;;;;;;5010677;28;20038;-85
2023/09/16 00:23:04;;;;;;;0.00;0.00;;;19.60;99.90;;;;;;5010687;28;20038;-84
2023/09/16 00:25:30;;;;;;;0.00;0.00;;;19.70;99.90;;;;;;5010299;28;20026;-85
2023/09/16 00:27:56;;;;;;;0.00;0.00;;;19.60;99.90;;;;;;5010595;28;20087;-84
2023/09/16 00:30:21;;;;;;;0.00;0.00;;;19.60;99.90;;;;;;5010003;28;20022;-80
2023/09/16 00:32:47;;;;;;;0.00;0.00;;;19.80;99.90;;;;;;5010100;28;20398;-83
2023/09/16 00:35:13;;;;;;;0.00;0.00;;;19.80;99.90;;;;;;5010348;28;20025;-85
2023/09/16 00:37:39;;;;;;;0.00;0.00;;;19.80;99.90;;;;;;5010112;28;20538;-83
2023/09/16 00:40:08;;;;;;;3.53;3.03;;;19.80;99.90;;;;;;5010531;28;20433;-84
2023/09/16 00:42:38;;;;;;;0.00;0.00;;;19.70;99.90;;;;;;5010256;28;20538;-85
2023/09/16 00:45:10;;;;;;;0.00;0.00;;;19.70;99.90;;;;;;5009853;28;20374;-84
2023/09/16 00:47:37;;;;;;;0.00;0.00;;;19.70;99.90;;;;;;5008972;28;20029;-82
2023/09/16 00:50:07;;;;;;;0.00;0.00;;;19.80;99.90;;;;;;5010344;28;20379;-83
2023/09/16 00:52:37;;;;;;;0.00;0.00;;;19.60;99.90;;;;;;5008878;28;20026;-84
2023/09/16 00:55:04;;;;;;;0.00;0.00;;;19.60;99.90;;;;;;5008797;28;20105;-81
2023/09/16 00:57:31;;;;;;;0.00;0.00;;;19.30;99.90;;;;;;5009436;28;20038;-84
2023/09/16 00:59:57;;;;;;;0.05;0.05;;;19.30;99.90;;;;;;5009556;28;20147;-81
2023/09/16 01:02:26;;;;;;;0.32;0.32;;;19.50;99.90;;;;;;5010144;28;20108;-82
2023/09/16 01:04:55;;;;;;;0.00;0.00;;;19.50;99.90;;;;;;5008578;28;20033;-81
2023/09/16 01:07:21;;;;;;;0.00;0.00;;;19.50;99.90;;;;;;5010067;28;20038;-81
2023/09/16 01:09:47;;;;;;;0.00;0.00;;;19.60;99.90;;;;;;5008790;28;20022;-83
2023/09/16 01:12:13;;;;;;;0.10;0.10;;;19.60;99.90;;;;;;5008741;28;20108;-79
2023/09/16 01:14:38;;;;;;;0.00;0.00;;;19.70;99.90;;;;;;5009761;28;20133;-81
2023/09/16 01:17:34;;;;;;;0.00;0.00;;;19.70;99.90;;;;;;5009779;28;20504;-84
2023/09/16 01:20:06;;;;;;;0.28;0.20;;;19.50;99.90;;;;;;5009368;28;20038;-82
2023/09/16 01:22:33;;;;;;;0.00;0.00;;;19.00;99.90;;;;;;5008650;28;20108;-83
2023/09/16 01:25:03;;;;;;;0.00;0.00;;;18.60;99.90;;;;;;5008508;28;20033;-83
2023/09/16 01:27:29;;;;;;;0.00;0.00;;;18.30;99.90;;;;;;5008182;28;20030;-81
2023/09/16 01:29:55;;;;;;;0.00;0.00;;;18.10;99.90;;;;;;5008588;28;20029;-80
2023/09/16 01:32:27;;;;;;;0.03;0.03;;;18.40;99.90;;;;;;5009593;28;20025;-83
2023/09/16 01:34:54;;;;;;;0.03;0.03;;;18.60;99.90;;;;;;5008442;28;20030;-82
2023/09/16 01:37:23;;;;;;;0.10;0.10;;;18.70;99.90;;;;;;5008219;28;20407;-77
2023/09/16 01:39:55;;;;;;;0.03;0.03;;;18.70;99.90;;;;;;5009553;28;20034;-82
2023/09/16 01:42:23;;;;;;;0.00;0.00;;;18.80;99.90;;;;;;4991896;28;20033;-84
2023/09/16 01:44:56;;;;;;;1.25;1.08;;;18.70;99.90;;;;;;5009479;28;20026;-82
2023/09/16 01:47:22;;;;;;;0.00;0.00;;;18.70;99.90;;;;;;5009508;28;20018;-81
2023/09/16 01:49:47;;;;;;;0.00;0.00;;;18.70;99.90;;;;;;5008102;28;20498;-79
2023/09/16 01:52:16;;;;;;;0.00;0.00;;;18.70;99.90;;;;;;5010022;28;20022;-84
2023/09/16 01:54:42;;;;;;;0.00;0.00;;;18.70;99.90;;;;;;5009288;28;20022;-84
2023/09/16 01:57:08;;;;;;;0.00;0.00;;;18.60;99.90;;;;;;5009266;28;20038;-84
2023/09/16 01:59:34;;;;;;;0.00;0.00;;;18.50;99.90;;;;;;5008093;28;20026;-84
2023/09/16 02:02:00;;;;;;;0.05;0.05;;;18.70;99.90;;;;;;5008087;28;20029;-84
2023/09/16 02:04:26;;;;;;;0.00;0.00;;;18.50;99.90;;;;;;5007891;28;20062;-84
2023/09/16 02:06:52;;;;;;;0.00;0.00;;;18.40;99.90;;;;;;5009091;28;20056;-84
2023/09/16 02:09:18;;;;;;;0.05;0.05;;;18.60;99.90;;;;;;5010014;28;20113;-85
2023/09/16 02:11:44;;;;;;;0.00;0.00;;;18.70;99.90;;;;;;5012662;28;20451;-85
2023/09/16 02:14:12;;;;;;;0.00;0.00;;;18.80;99.90;;;;;;5011614;28;20026;-84
2023/09/16 02:16:37;;;;;;;0.10;0.10;;;18.60;99.90;;;;;;5011570;28;20037;-85
2023/09/16 02:19:05;;;;;;;0.05;0.05;;;18.20;99.90;;;;;;5012888;28;20033;-84
2023/09/16 02:21:32;;;;;;;0.00;0.00;;;17.80;99.90;;;;;;5014402;28;20026;-84
2023/09/16 02:23:58;;;;;;;0.90;0.90;;;17.60;99.90;;;;;;5012957;28;20057;-84
2023/09/16 02:26:24;;;;;;;0.00;0.00;;;17.70;99.90;;;;;;5011884;28;20486;-84
2023/09/16 02:28:50;;;;;;;0.00;0.00;;;17.60;99.90;;;;;;5011049;28;20026;-84
2023/09/16 02:31:17;;;;;;;0.00;0.00;;;17.40;99.90;;;;;;5011010;28;20030;-84
2023/09/16 02:33:42;;;;;;;0.00;0.00;;;17.30;99.90;;;;;;5010821;28;20143;-84
2023/09/16 02:36:08;;;;;;;0.00;0.00;;;17.50;99.90;;;;;;5010760;28;20470;-83
2023/09/16 02:38:34;;;;;;;0.00;0.00;;;17.70;99.90;;;;;;5012165;28;20517;-84
2023/09/16 02:41:04;;;;;;;0.00;0.00;;;17.70;99.90;;;;;;4994217;28;20026;-84
2023/09/16 02:43:33;;;;;;;0.08;0.08;;;17.80;99.90;;;;;;5010850;28;20041;-84
2023/09/16 02:45:59;;;;;;;0.00;0.00;;;17.80;99.90;;;;;;5010827;28;20063;-84
2023/09/16 02:48:25;;;;;;;0.00;0.00;;;17.80;99.90;;;;;;5010707;28;20109;-84
2023/09/16 02:50:51;;;;;;;0.00;0.00;;;17.80;99.90;;;;;;5010794;28;20041;-84
2023/09/16 02:53:17;;;;;;;0.00;0.00;;;18.00;99.90;;;;;;5016470;28;20089;-80
2023/09/16 02:55:43;;;;;;;0.00;0.00;;;18.20;99.90;;;;;;5010368;28;20486;-83
2023/09/16 02:58:10;;;;;;;0.00;0.00;;;18.20;99.90;;;;;;5010626;28;20033;-83
2023/09/16 03:00:36;;;;;;;0.00;0.00;;;18.10;99.90;;;;;;5008767;28;20025;-84
2023/09/16 03:03:02;;;;;;;0.00;0.00;;;17.90;99.90;;;;;;5010783;28;20030;-83
2023/09/16 03:05:29;;;;;;;0.00;0.00;;;17.70;99.90;;;;;;4994083;28;20038;-82
2023/09/16 03:07:55;;;;;;;0.00;0.00;;;17.70;99.90;;;;;;5010468;28;20050;-84
2023/09/16 03:10:21;;;;;;;0.45;0.45;;;17.60;99.90;;;;;;5010318;28;20042;-84
2023/09/16 03:12:47;;;;;;;0.00;0.00;;;17.60;99.90;;;;;;5010333;28;20394;-84
2023/09/16 03:15:14;;;;;;;0.00;0.00;;;17.40;99.90;;;;;;5010202;28;20467;-79
2023/09/16 03:17:41;;;;;;;0.00;0.00;;;17.40;99.90;;;;;;5004068;28;20586;-81
2023/09/16 03:20:08;;;;;;;0.00;0.00;;;17.30;99.90;;;;;;5003871;28;20117;-79
2023/09/16 03:22:33;;;;;;;0.08;0.08;;;17.30;99.90;;;;;;5010068;28;20121;-78
2023/09/16 03:24:59;;;;;;;0.82;0.82;;;17.40;99.90;;;;;;5010066;28;20105;-79
2023/09/16 03:27:25;;;;;;;0.00;0.00;;;17.00;99.90;;;;;;5011318;28;20085;-76
2023/09/16 03:29:51;;;;;;;0.00;0.00;;;17.10;99.90;;;;;;5011239;28;20109;-78
2023/09/16 03:32:17;;;;;;;0.00;0.00;;;17.00;99.90;;;;;;5003734;28;20022;-81
2023/09/16 03:34:43;;;;;;;0.00;0.00;;;17.00;99.90;;;;;;5002348;28;20030;-82
2023/09/16 03:37:10;;;;;;;0.00;0.00;;;17.10;99.90;;;;;;5011160;28;20038;-82
2023/09/16 03:39:36;;;;;;;0.00;0.00;;;17.30;99.90;;;;;;5010712;28;20026;-83
2023/09/16 03:42:05;;;;;;;0.10;0.10;;;17.30;99.90;;;;;;5009900;28;20029;-83
2023/09/16 03:44:31;;;;;;;0.00;0.00;;;17.30;99.90;;;;;;5009697;28;20140;-84
2023/09/16 03:46:57;;;;;;;0.00;0.00;;;17.30;99.90;;;;;;4990445;28;20149;-79
2023/09/16 03:49:23;;;;;;;0.00;0.00;;;17.40;99.90;;;;;;5020891;28;20033;-82
2023/09/16 03:51:48;;;;;;;0.57;0.57;;;17.40;99.90;;;;;;5009702;28;20030;-82
2023/09/16 03:54:16;;;;;;;0.00;0.00;;;17.40;99.90;;;;;;5009846;28;20030;-78
2023/09/16 03:56:42;;;;;;;0.00;0.00;;;17.40;99.90;;;;;;5009553;28;20113;-79
2023/09/16 03:59:10;;;;;;;0.00;0.00;;;17.40;99.90;;;;;;5026079;28;20053;-76
2023/09/16 04:01:37;;;;;;;0.00;0.00;;;17.40;99.90;;;;;;5009554;28;20070;-83
2023/09/16 04:04:03;;;;;;;0.00;0.00;;;17.30;99.90;;;;;;5010665;28;20105;-83
2023/09/16 04:06:31;;;;;;;0.00;0.00;;;17.10;99.90;;;;;;5009140;28;20382;-80
2023/09/16 04:08:57;;;;;;;0.00;0.00;;;17.10;99.90;;;;;;5009113;28;20029;-83
2023/09/16 04:11:22;;;;;;;0.05;0.05;;;17.10;99.90;;;;;;5009562;28;20030;-79
2023/09/16 04:13:48;;;;;;;0.00;0.00;;;16.90;99.90;;;;;;5009385;28;20429;-81
2023/09/16 04:16:14;;;;;;;0.00;0.00;;;16.90;99.90;;;;;;5010753;28;20018;-75
2023/09/16 04:18:40;;;;;;;0.00;0.00;;;16.90;99.90;;;;;;5025614;28;20498;-81
2023/09/16 04:21:06;;;;;;;0.00;0.00;;;17.00;99.90;;;;;;5026315;28;20020;-80
2023/09/16 04:23:34;;;;;;;0.10;0.10;;;17.00;99.90;;;;;;5008848;28;20037;-84
2023/09/16 04:26:05;;;;;;;0.10;0.10;;;17.00;99.90;;;;;;5009256;28;20018;-80
2023/09/16 04:28:31;;;;;;;0.00;0.00;;;17.00;99.90;;;;;;5025710;28;20026;-78
2023/09/16 04:30:58;;;;;;;0.03;0.03;;;17.00;99.90;;;;;;4992175;28;20022;-80
2023/09/16 04:33:28;;;;;;;0.00;0.00;;;17.00;99.90;;;;;;5025467;28;20390;-79
2023/09/16 04:35:56;;;;;;;0.00;0.00;;;16.90;99.90;;;;;;5008742;28;20018;-80
2023/09/16 04:38:23;;;;;;;0.10;0.10;;;17.00;99.90;;;;;;5009110;28;20041;-79
2023/09/16 04:40:50;;;;;;;0.00;0.00;;;16.90;99.90;;;;;;5008667;28;20086;-78
2023/09/16 04:43:16;;;;;;;0.00;0.00;;;16.90;99.90;;;;;;5008907;28;20105;-78
2023/09/16 04:45:44;;;;;;;0.00;0.00;;;16.90;99.90;;;;;;5008947;28;20034;-79
2023/09/16 04:48:13;;;;;;;0.00;0.00;;;16.90;99.90;;;;;;5008872;28;20469;-78
2023/09/16 04:50:43;;;;;;;0.20;0.20;;;17.00;99.90;;;;;;5008612;28;20038;-82
2023/09/16 04:53:10;;;;;;;0.00;0.00;;;16.90;99.90;;;;;;4992554;28;20053;-84
2023/09/16 04:55:37;;;;;;;0.00;0.00;;;16.80;99.90;;;;;;5008896;28;20114;-83
2023/09/16 04:58:03;;;;;;;0.10;0.10;;;16.70;99.90;;;;;;5009047;28;20121;-83
2023/09/16 05:00:33;;;;;;;0.03;0.03;;;16.60;99.90;;;;;;5025201;28;20037;-83
2023/09/16 05:03:01;;;;;;;0.00;0.00;;;16.70;99.90;;;;;;5008937;28;20021;-83
2023/09/16 05:05:27;;;;;;;0.03;0.03;;;16.70;99.90;;;;;;5008192;28;20108;-84
2023/09/16 05:07:53;;;;;;;0.00;0.00;;;16.70;99.90;;;;;;5008663;28;20029;-83
2023/09/16 05:10:19;;;;;;;0.00;0.00;;;16.70;99.90;;;;;;5008508;28;20440;-84
2023/09/16 05:12:45;;;;;;;0.00;0.00;;;16.70;99.90;;;;;;5008572;28;20058;-82
2023/09/16 05:15:11;;;;;;;0.00;0.00;;;16.50;99.90;;;;;;5008129;28;20478;-83
2023/09/16 05:17:38;;;;;;;0.10;0.10;;;16.40;99.90;;;;;;5008457;28;20108;-83
2023/09/16 05:20:05;;;;;;;0.10;0.10;;;16.60;99.90;;;;;;5024512;28;20029;-83
2023/09/16 05:22:32;;;;;;;0.00;0.00;;;16.60;99.90;;;;;;5008916;28;20396;-84
2023/09/16 05:24:58;;;;;;;2.13;2.03;;;16.60;99.90;;;;;;5008297;28;20029;-79
2023/09/16 05:27:25;;;;;;;0.10;0.10;;;16.60;99.90;;;;;;5008631;28;20474;-83
2023/09/16 05:29:52;;;;;;;0.00;0.00;;;16.70;99.90;;;;;;5024728;28;20018;-83
2023/09/16 05:32:21;;;;;;;0.85;0.75;;;16.70;99.90;;;;;;5010039;28;20438;-79
2023/09/16 05:34:47;;;;;;;0.00;0.00;;;16.70;99.90;;;;;;5008005;28;20034;-80
2023/09/16 05:37:14;;;;;;;0.05;0.05;;;16.70;99.90;;;;;;5008269;28;20022;-81
2023/09/16 05:39:40;;;;;;;0.00;0.00;;;16.70;99.90;;;;;;5009422;28;20455;-82
2023/09/16 05:42:06;;;;;;;0.10;0.10;;;16.80;99.90;;;;;;5008716;28;20030;-78
2023/09/16 05:44:32;;;;;;;0.70;0.70;;;16.70;99.90;;;;;;5011717;28;20045;-79
2023/09/16 05:46:59;;;;;;;0.00;0.00;;;16.70;99.90;;;;;;5011805;28;20049;-82
2023/09/16 05:49:26;;;;;;;0.00;0.00;;;16.70;99.90;;;;;;5011205;28;20022;-82
2023/09/16 05:51:52;;;;;;;0.10;0.10;;;16.40;99.90;;;;;;5011334;28;20490;-81
2023/09/16 05:54:18;;;;;;;0.00;0.00;;;16.40;99.90;;;;;;5028022;28;20038;-83
2023/09/16 05:56:46;;;;;;;0.00;0.00;;;16.60;99.90;;;;;;5012726;28;20535;-80
2023/09/16 05:59:14;;;;;;;0.10;0.10;;;16.80;99.90;;;;;;5011170;28;20022;-78
2023/09/16 06:01:40;;;;;;;0.00;0.00;;;16.90;99.90;;;;;;5011249;28;20037;-77
2023/09/16 06:04:08;;;;;;;0.10;0.10;;;17.20;99.90;;;;;;5011401;28;20025;-82
2023/09/16 06:06:35;;;;;;;0.10;0.10;;;17.40;99.90;;;;;;4994981;28;20045;-79
2023/09/16 06:09:04;;;;;;;0.22;0.22;;;17.50;99.90;;;;;;4994913;28;20033;-79
2023/09/16 06:11:30;;;;;;;0.00;0.00;;;17.50;99.90;;;;;;5012355;28;20026;-81
2023/09/16 06:13:57;;;;;;;0.00;0.00;;;17.50;99.90;;;;;;4994858;28;20505;-81
2023/09/16 06:16:23;;;;;;;0.00;0.00;;;17.60;99.90;;;;;;5011052;28;20091;-81
2023/09/16 06:18:49;;;;;;;0.00;0.00;;;17.60;99.90;;;;;;5010915;28;20026;-74
2023/09/16 06:21:15;;;;;;;0.00;0.00;;;17.70;99.90;;;;;;5012443;28;20424;-82
2023/09/16 06:23:42;;;;;;;0.00;0.00;;;17.90;99.90;;;;;;5011103;28;20478;-83
2023/09/16 06:26:10;;;;;;;0.00;0.00;;;17.90;99.90;;;;;;5011127;28;20037;-80
2023/09/16 06:28:41;;;;;;;5.57;5.15;;;18.00;99.90;;;;;;5010964;28;20482;-79
2023/09/16 06:31:07;;;;;;;0.00;0.00;;;18.20;99.90;;;;;;5011000;28;20105;-82
2023/09/16 06:33:36;;;;;;;0.00;0.00;;;18.20;99.90;;;;;;5010819;28;20496;-84
2023/09/16 06:36:02;;;;;;;0.00;0.00;;;18.40;99.90;;;;;;5010699;28;20022;-82
2023/09/16 06:38:30;;;;;;;0.00;0.00;;;18.60;99.90;;;;;;5012189;28;20026;-84
2023/09/16 06:40:56;;;;;;;0.10;0.10;;;18.70;99.90;;;;;;4994319;28;20494;-85
2023/09/16 06:43:23;;;;;;;0.00;0.00;;;18.80;99.90;;;;;;5012346;28;20117;-86
2023/09/16 06:45:50;;;;;;;0.00;0.00;;;18.80;99.90;;;;;;4994468;28;20026;-84
2023/09/16 06:48:16;;;;;;;0.00;0.00;;;18.70;99.90;;;;;;5012230;28;20044;-82
2023/09/16 06:50:43;;;;;;;0.00;0.00;;;18.90;99.90;;;;;;5011262;28;20034;-86
2023/09/16 06:53:08;;;;;;;0.00;0.00;;;19.10;99.90;;;;;;5048276;28;20034;-85
2023/09/16 06:55:34;;;;;;;0.00;0.00;;;19.30;99.90;;;;;;5016968;28;20075;-86
2023/09/16 06:58:04;;;;;;;0.08;0.08;;;19.30;99.90;;;;;;5054489;28;20109;-87
2023/09/16 07:00:30;;;;;;;0.00;0.00;;;19.40;99.90;;;;;;5056035;28;20138;-86
2023/09/16 07:02:59;;;;;;;0.00;0.00;;;19.50;99.90;;;;;;5014122;28;20165;-86
2023/09/16 07:05:31;;;;;;;0.00;0.00;;;19.50;99.90;;;;;;5024443;28;20037;-86
2023/09/16 07:08:00;;;;;;;0.00;0.00;;;19.70;99.90;;;;;;5012957;28;20493;-87
2023/09/16 07:10:26;;;;;;;3.97;1.48;;;19.70;99.90;;;;;;5037943;28;20024;-86
2023/09/16 07:12:52;;;;;;;0.00;0.00;;;19.60;99.90;;;;;;5097665;28;20544;-86
2023/09/16 07:15:19;;;;;;;0.63;0.63;;;19.60;99.90;;;;;;5036098;28;20092;-77
2023/09/16 07:17:46;;;;;;;0.38;0.38;;;19.50;99.90;;;;;;5018822;28;20034;-87
2023/09/16 07:20:12;;;;;;;1.48;1.38;;;19.50;99.90;;;;;;5032666;28;20026;-84
2023/09/16 07:22:40;;;;;;;11.70;0.65;;;19.40;99.90;;;;;;5040962;28;20076;-87
2023/09/16 07:25:07;;;;;;;0.88;0.88;;;19.20;99.90;;;;;;5052168;28;20033;-83
2023/09/16 07:27:33;;;;;;;0.50;0.50;;;19.20;99.90;;;;;;5033030;28;20052;-85
2023/09/16 07:29:58;;;;;;;0.00;0.00;;;19.20;99.90;;;;;;5017071;28;20026;-86
2023/09/16 07:32:28;;;;;;;3.45;1.55;;;19.30;99.90;;;;;;5022423;28;20086;-87
2023/09/16 07:34:55;;;;;;;0.68;0.68;;;19.50;99.90;;;;;;5049722;28;20107;-87
2023/09/16 07:37:20;;;;;;;0.00;0.00;;;19.50;99.90;;;;;;5036453;28;20109;-86
2023/09/16 07:39:47;;;;;;;0.00;0.00;;;19.90;99.90;;;;;;5020596;28;20423;-84
2023/09/16 07:42:14;;;;;;;0.00;0.00;;;20.30;99.90;;;;;;5038094;28;20038;-75
2023/09/16 07:44:41;;;;;;;1.27;1.17;;;20.50;99.90;;;;;;5032477;28;20415;-81
2023/09/16 07:47:06;;;;;;;0.00;0.00;;;20.70;99.90;;;;;;5009616;28;20040;-87
2023/09/16 07:49:32;;;;;;;0.00;0.00;;;20.70;99.90;;;;;;5050911;28;20026;-87
2023/09/16 07:51:58;;;;;;;0.00;0.00;;;21.10;99.90;;;;;;5028251;28;20524;-83
2023/09/16 07:54:24;;;;;;;0.00;0.00;;;21.00;99.90;;;;;;5019885;28;20076;-87
2023/09/16 07:56:50;;;;;;;0.52;0.52;;;21.00;99.90;;;;;;5036631;28;20103;-79
2023/09/16 07:59:20;;;;;;;0.28;0.28;;;21.00;99.90;;;;;;5081812;28;20103;-85
2023/09/16 08:01:46;;;;;;;0.00;0.00;;;21.10;99.90;;;;;;5002923;28;20039;-82
2023/09/16 08:04:12;;;;;;;0.00;0.00;;;21.10;99.90;;;;;;5003678;28;20105;-88
2023/09/16 08:06:38;;;;;;;0.00;0.00;;;21.40;99.90;;;;;;5010232;28;20026;-88
2023/09/16 08:09:04;;;;;;;0.00;0.00;;;21.40;99.90;;;;;;5010844;28;20390;-87
2023/09/16 08:11:29;;;;;;;0.32;0.32;;;21.70;99.90;;;;;;5010043;28;20482;-87
2023/09/16 08:13:55;;;;;;;0.00;0.00;;;21.70;99.90;;;;;;5010548;28;20038;-87
2023/09/16 08:16:21;;;;;;;0.00;0.00;;;21.90;99.90;;;;;;5011293;28;20022;-88
2023/09/16 08:18:47;;;;;;;0.10;0.10;;;22.10;99.90;;;;;;5028436;28;20030;-87
2023/09/16 08:21:13;;;;;;;0.05;0.05;;;22.20;99.90;;;;;;5033920;28;20066;-88
2023/09/16 08:23:39;;;;;;;0.00;0.00;;;22.10;99.90;;;;;;5059476;28;20032;-88
2023/09/16 08:26:05;;;;;;;0.30;0.30;;;22.40;99.90;;;;;;5026514;28;20014;-89
2023/09/16 08:28:31;;;;;;;0.00;0.00;;;22.20;99.90;;;;;;5021498;28;20026;-88
2023/09/16 08:30:56;;;;;;;0.00;0.00;;;22.30;99.90;;;;;;5039603;28;20388;-88
2023/09/16 08:33:22;;;;;;;2.97;1.45;;;22.50;99.90;;;;;;5070016;28;20081;-88
2023/09/16 08:35:48;;;;;;;1.85;0.25;;;22.30;99.90;;;;;;5031160;28;20029;-86
2023/09/16 08:38:14;;;;;;;0.20;0.20;;;22.40;99.90;;;;;;5023585;28;20463;-88
2023/09/16 08:40:40;;;;;;;0.00;0.00;;;22.50;99.90;;;;;;5019224;28;20019;-88
2023/09/16 08:43:11;;;;;;;0.00;0.00;;;22.90;99.90;;;;;;5045831;28;20458;-89
2023/09/16 08:45:43;;;;;;;0.00;0.00;;;23.60;99.90;;;;;;5053030;28;20068;-89
2023/09/16 08:48:14;;;;;;;0.00;0.00;;;23.90;99.90;;;;;;5032305;28;20450;-87
2023/09/16 08:50:41;;;;;;;5.93;2.20;;;24.20;99.90;;;;;;5036340;28;20605;-86
2023/09/16 08:53:11;;;;;;;0.20;0.20;;;24.00;99.90;;;;;;5013639;28;20473;-90
2023/09/16 08:55:37;;;;;;;1.27;1.27;;;23.60;99.90;;;;;;5047614;28;20109;-88
2023/09/16 08:58:10;;;;;;;5.40;0.40;;;23.60;99.90;;;;;;5039369;28;20065;-88
2023/09/16 09:00:39;;;;;;;0.32;0.32;;;23.70;99.90;;;;;;5033394;28;20120;-89
2023/09/16 09:03:05;;;;;;;0.00;0.00;;;23.50;99.90;;;;;;5022057;28;20022;-82
2023/09/16 09:05:36;;;;;;;0.00;0.00;;;23.40;99.90;;;;;;5007884;28;20030;-84
2023/09/16 09:08:08;;;;;;;0.10;0.10;;;23.80;99.90;;;;;;5049703;28;20557;-88
2023/09/16 09:10:38;;;;;;;0.00;0.00;;;24.00;99.90;;;;;;5090326;28;20108;-88
2023/09/16 09:13:12;;;;;;;0.00;0.00;;;24.20;99.90;;;;;;5082252;28;20059;-89
2023/09/16 09:15:42;;;;;;;0.00;0.00;;;24.40;99.90;;;;;;5038331;28;20030;-88
2023/09/16 09:18:12;;;;;;;0.10;0.10;;;24.50;99.90;;;;;;5010539;28;20038;-80
2023/09/16 09:20:38;;;;;;;0.00;0.00;;;24.80;99.90;;;;;;5012100;28;20073;-80
2023/09/16 09:23:04;;;;;;;0.00;0.00;;;24.60;99.90;;;;;;5012879;28;20033;-88
2023/09/16 09:25:32;;;;;;;0.10;0.10;;;24.50;99.90;;;;;;5013405;28;20085;-87
2023/09/16 09:27:58;;;;;;;0.00;0.00;;;24.20;99.90;;;;;;5012491;28;20121;-84
2023/09/16 09:30:26;;;;;;;0.00;0.00;;;24.50;99.90;;;;;;5012949;28;20107;-84
2023/09/16 09:32:56;;;;;;;0.00;0.00;;;25.10;99.90;;;;;;5013231;28;20159;-84
2023/09/16 09:35:24;;;;;;;0.50;0.50;;;25.70;99.90;;;;;;5012932;28;20112;-83
2023/09/16 09:37:50;;;;;;;0.10;0.10;;;25.50;99.90;;;;;;5012868;28;20030;-84
2023/09/16 09:40:17;;;;;;;0.10;0.10;;;24.90;99.90;;;;;;5011810;28;20072;-83
2023/09/16 09:42:48;;;;;;;0.00;0.00;;;24.50;99.90;;;;;;5012738;28;20030;-83
2023/09/16 09:45:16;;;;;;;0.00;0.00;;;24.60;99.90;;;;;;5011782;28;20030;-84
2023/09/16 09:47:44;;;;;;;0.00;0.00;;;24.80;99.90;;;;;;5012606;28;20034;-84
2023/09/16 09:50:14;;;;;;;0.20;0.20;;;25.20;99.90;;;;;;5011577;28;20056;-83
2023/09/16 09:52:52;;;;;;;0.25;0.25;;;25.40;99.90;;;;;;5012821;28;20083;-83
2023/09/16 09:55:20;;;;;;;0.57;0.30;;;25.70;99.90;;;;;;5012406;28;20033;-83
2023/09/16 09:57:48;;;;;;;0.00;0.00;;;25.80;99.90;;;;;;5011413;28;20036;-84
2023/09/16 10:00:16;;;;;;;0.00;0.00;;;25.90;99.90;;;;;;5012398;28;20041;-84
2023/09/16 10:02:43;;;;;;;0.10;0.10;;;26.10;99.90;;;;;;5012434;28;20073;-83
2023/09/16 10:05:14;;;;;;;0.52;0.52;;;25.90;99.90;;;;;;5012537;28;20026;-83
2023/09/16 10:07:42;;;;;;;0.00;0.00;;;25.70;99.90;;;;;;5012618;28;20033;-81
2023/09/16 10:10:22;;;;;;;0.00;0.00;;;25.50;99.90;;;;;;5012120;28;20026;-83
2023/09/16 10:12:55;;;;;;;0.05;0.05;;;25.90;99.90;;;;;;5012652;28;20448;-83
2023/09/16 10:15:31;;;;;;;2.92;0.25;;;26.00;99.90;;;;;;5012342;28;20511;-83
2023/09/16 10:17:57;;;;;;;0.00;0.00;;;26.40;99.90;;;;;;5012342;28;20042;-84
2023/09/16 10:20:24;;;;;;;0.00;0.00;;;26.60;99.90;;;;;;5012317;28;20041;-83
2023/09/16 10:22:51;;;;;;;0.00;0.00;;;27.20;99.50;;;;;;5012553;28;20072;-83
2023/09/16 10:25:18;;;;;;;0.63;0.57;;;27.30;99.10;;;;;;5011945;28;20026;-84
2023/09/16 10:27:51;;;;;;;3.00;1.13;;;27.20;97.30;;;;;;5012407;28;20129;-84
2023/09/16 10:30:18;;;;;;;0.00;0.00;;;27.10;98.20;;;;;;5011237;28;20037;-81
2023/09/16 10:32:44;;;;;;;0.00;0.00;;;27.60;98.60;;;;;;5012376;28;20034;-83
2023/09/16 10:35:10;;;;;;;0.05;0.05;;;28.10;97.50;;;;;;5012131;28;20022;-83
2023/09/16 10:37:37;;;;;;;0.00;0.00;;;28.60;96.90;;;;;;5012005;28;20115;-82
2023/09/16 10:40:07;;;;;;;0.00;0.00;;;28.60;96.10;;;;;;5011932;28;20033;-82
2023/09/16 10:42:36;;;;;;;0.00;0.00;;;28.80;96.00;;;;;;5011900;28;20040;-83
2023/09/16 10:45:03;;;;;;;0.20;0.20;;;28.40;95.70;;;;;;5012254;28;20030;-83
2023/09/16 10:47:30;;;;;;;1.35;0.82;;;28.80;95.60;;;;;;5010264;28;20413;-82
2023/09/16 10:49:56;;;;;;;0.45;0.45;;;28.30;95.10;;;;;;5011876;28;20442;-82
2023/09/16 10:52:31;;;;;;;0.73;0.68;;;28.50;95.40;;;;;;5010310;28;20065;-82
2023/09/16 10:55:09;;;;;;;0.80;0.45;;;28.50;95.00;;;;;;5011782;28;20026;-82
2023/09/16 10:57:39;;;;;;;0.00;0.00;;;28.90;95.00;;;;;;5027086;28;20406;-84
2023/09/16 11:00:10;;;;;;;0.05;0.05;;;29.50;94.50;;;;;;5010970;28;20574;-84
2023/09/16 11:02:59;;;;;;;0.00;0.00;;;29.30;93.30;;;;;;5011560;28;20033;-83
2023/09/16 11:05:26;;;;;;;0.30;0.30;;;29.80;93.20;;;;;;5011837;28;20026;-84
2023/09/16 11:07:55;;;;;;;1.17;0.45;;;29.90;93.00;;;;;;5010998;28;20390;-82
2023/09/16 11:10:23;;;;;;;0.10;0.10;;;29.70;92.60;;;;;;5010385;28;20033;-84
2023/09/16 11:12:50;;;;;;;1.98;0.68;;;29.70;92.70;;;;;;5011705;28;20493;-83
2023/09/16 11:15:17;;;;;;;0.65;0.28;;;29.70;93.10;;;;;;5010341;28;20044;-83
2023/09/16 11:17:43;;;;;;;0.00;0.00;;;30.30;92.20;;;;;;5011689;28;20571;-83
2023/09/16 11:20:28;;;;;;;2.20;0.45;;;30.50;92.30;;;;;;5010055;28;20101;-81
2023/09/16 11:22:54;;;;;;;0.00;0.00;;;29.80;92.90;;;;;;5010857;28;20467;-82
2023/09/16 11:25:20;;;;;;;0.00;0.00;;;30.30;92.50;;;;;;5011495;28;20109;-79
2023/09/16 11:27:46;;;;;;;0.03;0.03;;;30.80;92.30;;;;;;5011508;28;20483;-83
2023/09/16 11:30:13;;;;;;;0.00;0.00;;;30.80;92.10;;;;;;5011678;28;20490;-81
2023/09/16 11:32:54;;;;;;;0.00;0.00;;;30.80;92.20;;;;;;5011209;28;20057;-82
2023/09/16 11:35:20;;;;;;;0.00;0.00;;;31.00;92.20;;;;;;5011442;28;20026;-82
2023/09/16 11:37:46;;;;;;;0.00;0.00;;;31.60;91.60;;;;;;4997447;28;20390;-82
2023/09/16 11:40:14;;;;;;;0.00;0.00;;;31.80;91.90;;;;;;5009608;28;20382;-81
2023/09/16 11:42:40;;;;;;;0.10;0.10;;;32.70;91.20;;;;;;5010769;28;20030;-83
2023/09/16 11:45:06;;;;;;;0.00;0.00;;;32.70;90.60;;;;;;5010162;28;20394;-80
2023/09/16 11:47:32;;;;;;;0.40;0.40;;;32.30;90.60;;;;;;5010945;28;20041;-83
2023/09/16 11:49:58;;;;;;;0.00;0.00;;;32.20;90.00;;;;;;5011049;28;20554;-80
2023/09/16 11:52:25;;;;;;;0.05;0.05;;;32.00;90.30;;;;;;5010741;28;20030;-83
2023/09/16 11:54:51;;;;;;;0.00;0.00;;;32.50;90.70;;;;;;5009692;28;20025;-83
2023/09/16 11:57:18;;;;;;;0.00;0.00;;;33.30;89.20;;;;;;5011116;28;20489;-83
2023/09/16 11:59:46;;;;;;;0.00;0.00;;;33.40;88.50;;;;;;5016792;28;20139;-84
2023/09/16 12:02:11;;;;;;;0.15;0.15;;;34.60;87.70;;;;;;5011535;28;20041;-84
2023/09/16 12:04:39;;;;;;;0.05;0.05;;;33.40;88.00;;;;;;5010829;28;20018;-84
2023/09/16 12:07:05;;;;;;;0.00;0.00;;;34.40;87.20;;;;;;5009387;28;20045;-83
2023/09/16 12:09:32;;;;;;;0.60;0.30;;;33.70;85.50;;;;;;5010962;28;20029;-84
2023/09/16 12:11:58;;;;;;;0.08;0.08;;;33.80;86.20;;;;;;5009761;28;20034;-84
2023/09/16 12:14:24;;;;;;;0.08;0.08;;;34.30;85.40;;;;;;4990026;28;20069;-83
2023/09/16 12:16:52;;;;;;;0.05;0.05;;;34.90;83.90;;;;;;5006721;28;20117;-84
2023/09/16 12:19:18;;;;;;;0.10;0.10;;;34.40;83.50;;;;;;5009414;28;20030;-84
2023/09/16 12:21:48;;;;;;;0.00;0.00;;;34.80;83.00;;;;;;5009471;28;20531;-83
2023/09/16 12:24:21;;;;;;;0.20;0.20;;;35.50;82.20;;;;;;4997504;28;20022;-84
2023/09/16 12:26:49;;;;;;;0.08;0.08;;;35.80;81.50;;;;;;5010635;28;20030;-84
2023/09/16 12:29:14;;;;;;;0.00;0.00;;;35.80;81.40;;;;;;5010627;28;20109;-84
2023/09/16 12:31:40;;;;;;;0.00;0.00;;;36.60;80.80;;;;;;5009458;28;20101;-84
2023/09/16 12:34:13;;;;;;;0.00;0.00;;;38.20;79.40;;;;;;5010198;28;20113;-83
2023/09/16 12:36:39;;;;;;;0.47;0.47;;;38.60;76.60;;;;;;5010311;28;20022;-84
2023/09/16 12:39:05;;;;;;;0.03;0.03;;;38.20;76.20;;;;;;5010394;28;20037;-82
2023/09/16 12:41:33;;;;;;;0.00;0.00;;;37.10;75.80;;;;;;5010615;28;20053;-83
2023/09/16 12:43:59;;;;;;;0.00;0.00;;;37.10;76.60;;;;;;5009789;28;20057;-84
2023/09/16 12:46:29;;;;;;;0.17;0.17;;;37.20;76.20;;;;;;5010520;28;20101;-82
2023/09/16 12:48:55;;;;;;;0.10;0.10;;;37.50;74.80;;;;;;5010053;28;20378;-83